sensor_id;sensor_type;location;lat;lon;timestamp;P1;durP1;ratioP1;P2;durP2;ratioP2
62123;SDS011;48110;47.532;19.078;2023-10-19T00:00:41;20.35;;;13.40;;
62123;SDS011;48110;47.532;19.078;2023-10-19T00:03:48;25.35;;;13.95;;
62123;SDS011;48110;47.532;19.078;2023-10-19T00:06:52;21.73;;;14.02;;
62123;SDS011;48110;47.532;19.078;2023-10-19T00:09:58;20.50;;;13.60;;
62123;SDS011;48110;47.532;19.078;2023-10-19T00:13:02;20.42;;;13.75;;
62123;SDS011;48110;47.532;19.078;2023-10-19T00:16:08;20.67;;;12.35;;
62123;SDS011;48110;47.532;19.078;2023-10-19T00:19:20;19.05;;;12.37;;
62123;SDS011;48110;47.532;19.078;2023-10-19T00:22:23;19.73;;;12.65;;
62123;SDS011;48110;47.532;19.078;2023-10-19T00:25:27;19.83;;;12.45;;
62123;SDS011;48110;47.532;19.078;2023-10-19T00:28:30;17.05;;;12.10;;
62123;SDS011;48110;47.532;19.078;2023-10-19T00:31:37;16.87;;;12.15;;
62123;SDS011;48110;47.532;19.078;2023-10-19T00:34:43;18.50;;;11.50;;
62123;SDS011;48110;47.532;19.078;2023-10-19T00:41:00;19.65;;;11.95;;
62123;SDS011;48110;47.532;19.078;2023-10-19T00:44:23;19.90;;;12.00;;
62123;SDS011;48110;47.532;19.078;2023-10-19T00:47:47;19.70;;;11.95;;
62123;SDS011;48110;47.532;19.078;2023-10-19T00:50:50;19.80;;;12.13;;
62123;SDS011;48110;47.532;19.078;2023-10-19T00:53:57;24.58;;;11.70;;
62123;SDS011;48110;47.532;19.078;2023-10-19T00:57:07;20.67;;;11.63;;
62123;SDS011;48110;47.532;19.078;2023-10-19T01:00:14;17.25;;;12.02;;
62123;SDS011;48110;47.532;19.078;2023-10-19T01:03:24;16.83;;;11.57;;
62123;SDS011;48110;47.532;19.078;2023-10-19T01:06:34;15.93;;;11.50;;
62123;SDS011;48110;47.532;19.078;2023-10-19T01:09:38;17.25;;;11.82;;
62123;SDS011;48110;47.532;19.078;2023-10-19T01:12:43;19.77;;;11.85;;
62123;SDS011;48110;47.532;19.078;2023-10-19T01:15:45;16.30;;;11.88;;
62123;SDS011;48110;47.532;19.078;2023-10-19T01:18:53;19.90;;;12.70;;
62123;SDS011;48110;47.532;19.078;2023-10-19T01:21:56;16.42;;;11.82;;
62123;SDS011;48110;47.532;19.078;2023-10-19T01:25:03;16.67;;;11.98;;
62123;SDS011;48110;47.532;19.078;2023-10-19T01:28:11;17.60;;;11.63;;
62123;SDS011;48110;47.532;19.078;2023-10-19T01:31:20;18.33;;;12.40;;
62123;SDS011;48110;47.532;19.078;2023-10-19T01:34:30;18.45;;;12.37;;
62123;SDS011;48110;47.532;19.078;2023-10-19T01:37:34;20.67;;;12.40;;
62123;SDS011;48110;47.532;19.078;2023-10-19T01:40:41;20.62;;;12.63;;
62123;SDS011;48110;47.532;19.078;2023-10-19T01:43:49;19.05;;;12.07;;
62123;SDS011;48110;47.532;19.078;2023-10-19T01:46:56;19.77;;;13.50;;
62123;SDS011;48110;47.532;19.078;2023-10-19T01:49:59;21.73;;;14.30;;
62123;SDS011;48110;47.532;19.078;2023-10-19T01:53:02;20.77;;;14.45;;
62123;SDS011;48110;47.532;19.078;2023-10-19T01:56:15;25.17;;;15.07;;
62123;SDS011;48110;47.532;19.078;2023-10-19T01:59:20;23.25;;;15.27;;
62123;SDS011;48110;47.532;19.078;2023-10-19T02:02:25;23.75;;;15.93;;
62123;SDS011;48110;47.532;19.078;2023-10-19T02:05:28;23.12;;;16.67;;
62123;SDS011;48110;47.532;19.078;2023-10-19T02:08:41;24.00;;;16.55;;
62123;SDS011;48110;47.532;19.078;2023-10-19T02:11:50;25.17;;;16.48;;
62123;SDS011;48110;47.532;19.078;2023-10-19T02:14:59;22.77;;;16.37;;
62123;SDS011;48110;47.532;19.078;2023-10-19T02:18:02;24.02;;;17.20;;
62123;SDS011;48110;47.532;19.078;2023-10-19T02:21:05;21.90;;;17.12;;
62123;SDS011;48110;47.532;19.078;2023-10-19T02:24:09;25.83;;;18.70;;
62123;SDS011;48110;47.532;19.078;2023-10-19T02:27:16;24.37;;;19.20;;
62123;SDS011;48110;47.532;19.078;2023-10-19T02:30:35;23.10;;;19.45;;
62123;SDS011;48110;47.532;19.078;2023-10-19T02:33:38;27.95;;;21.30;;
62123;SDS011;48110;47.532;19.078;2023-10-19T02:36:41;27.90;;;22.50;;
62123;SDS011;48110;47.532;19.078;2023-10-19T02:39:45;33.42;;;22.77;;
62123;SDS011;48110;47.532;19.078;2023-10-19T02:42:48;28.52;;;22.87;;
62123;SDS011;48110;47.532;19.078;2023-10-19T02:45:53;32.10;;;23.83;;
62123;SDS011;48110;47.532;19.078;2023-10-19T02:48:56;32.38;;;24.73;;
62123;SDS011;48110;47.532;19.078;2023-10-19T02:51:59;31.85;;;23.55;;
62123;SDS011;48110;47.532;19.078;2023-10-19T02:55:07;35.70;;;24.98;;
62123;SDS011;48110;47.532;19.078;2023-10-19T02:58:11;33.40;;;25.85;;
62123;SDS011;48110;47.532;19.078;2023-10-19T03:01:16;33.00;;;26.70;;
62123;SDS011;48110;47.532;19.078;2023-10-19T03:04:24;36.72;;;26.65;;
62123;SDS011;48110;47.532;19.078;2023-10-19T03:07:28;38.85;;;28.92;;
62123;SDS011;48110;47.532;19.078;2023-10-19T03:10:31;35.50;;;28.12;;
62123;SDS011;48110;47.532;19.078;2023-10-19T03:13:44;39.70;;;29.30;;
62123;SDS011;48110;47.532;19.078;2023-10-19T03:16:47;39.30;;;29.08;;
62123;SDS011;48110;47.532;19.078;2023-10-19T03:19:51;40.53;;;31.52;;
62123;SDS011;48110;47.532;19.078;2023-10-19T03:22:53;41.30;;;34.00;;
62123;SDS011;48110;47.532;19.078;2023-10-19T03:26:02;45.45;;;33.85;;
62123;SDS011;48110;47.532;19.078;2023-10-19T03:29:25;50.75;;;36.83;;
62123;SDS011;48110;47.532;19.078;2023-10-19T03:32:34;45.63;;;35.70;;
62123;SDS011;48110;47.532;19.078;2023-10-19T03:35:38;47.47;;;35.95;;
62123;SDS011;48110;47.532;19.078;2023-10-19T03:38:44;48.87;;;38.50;;
62123;SDS011;48110;47.532;19.078;2023-10-19T03:41:48;50.42;;;38.22;;
62123;SDS011;48110;47.532;19.078;2023-10-19T03:44:54;48.97;;;37.53;;
62123;SDS011;48110;47.532;19.078;2023-10-19T03:47:58;50.92;;;38.85;;
62123;SDS011;48110;47.532;19.078;2023-10-19T03:51:03;50.50;;;39.50;;
62123;SDS011;48110;47.532;19.078;2023-10-19T03:54:07;49.45;;;39.15;;
62123;SDS011;48110;47.532;19.078;2023-10-19T03:57:24;49.60;;;38.83;;
62123;SDS011;48110;47.532;19.078;2023-10-19T04:00:31;49.70;;;40.50;;
62123;SDS011;48110;47.532;19.078;2023-10-19T04:03:35;52.08;;;41.15;;
62123;SDS011;48110;47.532;19.078;2023-10-19T04:06:39;56.05;;;42.60;;
62123;SDS011;48110;47.532;19.078;2023-10-19T04:10:01;57.05;;;43.80;;
62123;SDS011;48110;47.532;19.078;2023-10-19T04:13:10;60.72;;;44.05;;
62123;SDS011;48110;47.532;19.078;2023-10-19T04:16:16;58.97;;;42.90;;
62123;SDS011;48110;47.532;19.078;2023-10-19T04:19:19;60.22;;;44.08;;
62123;SDS011;48110;47.532;19.078;2023-10-19T04:22:23;61.08;;;42.30;;
62123;SDS011;48110;47.532;19.078;2023-10-19T04:25:26;58.87;;;44.47;;
62123;SDS011;48110;47.532;19.078;2023-10-19T04:28:30;59.00;;;43.90;;
62123;SDS011;48110;47.532;19.078;2023-10-19T04:31:33;61.50;;;44.58;;
62123;SDS011;48110;47.532;19.078;2023-10-19T04:34:39;62.20;;;44.90;;
62123;SDS011;48110;47.532;19.078;2023-10-19T04:37:43;62.62;;;45.78;;
62123;SDS011;48110;47.532;19.078;2023-10-19T04:40:47;66.12;;;46.58;;
62123;SDS011;48110;47.532;19.078;2023-10-19T04:43:50;67.80;;;46.88;;
62123;SDS011;48110;47.532;19.078;2023-10-19T04:46:53;63.83;;;47.83;;
62123;SDS011;48110;47.532;19.078;2023-10-19T04:49:56;62.22;;;46.80;;
62123;SDS011;48110;47.532;19.078;2023-10-19T04:52:59;60.33;;;45.78;;
62123;SDS011;48110;47.532;19.078;2023-10-19T04:56:03;61.80;;;46.40;;
62123;SDS011;48110;47.532;19.078;2023-10-19T04:59:15;56.20;;;44.08;;
62123;SDS011;48110;47.532;19.078;2023-10-19T05:02:18;60.05;;;46.55;;
62123;SDS011;48110;47.532;19.078;2023-10-19T05:05:21;62.97;;;44.53;;
62123;SDS011;48110;47.532;19.078;2023-10-19T05:08:24;50.38;;;39.08;;
62123;SDS011;48110;47.532;19.078;2023-10-19T05:11:30;51.63;;;39.50;;
62123;SDS011;48110;47.532;19.078;2023-10-19T05:14:33;55.20;;;40.33;;
62123;SDS011;48110;47.532;19.078;2023-10-19T05:17:36;52.92;;;40.30;;
62123;SDS011;48110;47.532;19.078;2023-10-19T05:20:39;51.75;;;39.22;;
62123;SDS011;48110;47.532;19.078;2023-10-19T05:23:43;50.05;;;38.40;;
62123;SDS011;48110;47.532;19.078;2023-10-19T05:26:46;51.47;;;39.10;;
62123;SDS011;48110;47.532;19.078;2023-10-19T05:29:49;53.50;;;39.67;;
62123;SDS011;48110;47.532;19.078;2023-10-19T05:32:53;51.75;;;36.72;;
62123;SDS011;48110;47.532;19.078;2023-10-19T05:35:57;50.97;;;38.45;;
62123;SDS011;48110;47.532;19.078;2023-10-19T05:39:00;50.25;;;37.67;;
62123;SDS011;48110;47.532;19.078;2023-10-19T05:42:03;52.92;;;39.92;;
62123;SDS011;48110;47.532;19.078;2023-10-19T05:45:07;57.28;;;41.03;;
62123;SDS011;48110;47.532;19.078;2023-10-19T05:48:10;66.57;;;40.85;;
62123;SDS011;48110;47.532;19.078;2023-10-19T05:51:14;53.90;;;39.33;;
62123;SDS011;48110;47.532;19.078;2023-10-19T05:54:17;51.85;;;38.28;;
62123;SDS011;48110;47.532;19.078;2023-10-19T05:57:19;53.40;;;38.72;;
62123;SDS011;48110;47.532;19.078;2023-10-19T06:00:22;53.92;;;41.05;;
62123;SDS011;48110;47.532;19.078;2023-10-19T06:03:28;51.95;;;37.90;;
62123;SDS011;48110;47.532;19.078;2023-10-19T06:06:31;52.08;;;38.50;;
62123;SDS011;48110;47.532;19.078;2023-10-19T06:09:35;53.83;;;39.25;;
62123;SDS011;48110;47.532;19.078;2023-10-19T06:12:38;59.88;;;40.78;;
62123;SDS011;48110;47.532;19.078;2023-10-19T06:15:42;53.97;;;40.00;;
62123;SDS011;48110;47.532;19.078;2023-10-19T06:18:45;60.08;;;42.65;;
62123;SDS011;48110;47.532;19.078;2023-10-19T06:21:50;57.30;;;40.47;;
62123;SDS011;48110;47.532;19.078;2023-10-19T06:24:53;53.08;;;39.63;;
62123;SDS011;48110;47.532;19.078;2023-10-19T06:27:56;51.40;;;38.20;;
62123;SDS011;48110;47.532;19.078;2023-10-19T06:31:00;48.55;;;37.55;;
62123;SDS011;48110;47.532;19.078;2023-10-19T06:34:04;53.80;;;38.38;;
62123;SDS011;48110;47.532;19.078;2023-10-19T06:37:06;51.80;;;38.45;;
62123;SDS011;48110;47.532;19.078;2023-10-19T06:40:13;54.65;;;38.92;;
62123;SDS011;48110;47.532;19.078;2023-10-19T06:43:17;54.67;;;40.08;;
62123;SDS011;48110;47.532;19.078;2023-10-19T06:46:20;50.17;;;38.30;;
62123;SDS011;48110;47.532;19.078;2023-10-19T06:49:24;51.22;;;39.47;;
62123;SDS011;48110;47.532;19.078;2023-10-19T06:52:27;52.13;;;39.92;;
62123;SDS011;48110;47.532;19.078;2023-10-19T06:55:30;53.70;;;39.65;;
62123;SDS011;48110;47.532;19.078;2023-10-19T06:58:33;53.65;;;39.90;;
62123;SDS011;48110;47.532;19.078;2023-10-19T07:01:37;57.35;;;41.10;;
62123;SDS011;48110;47.532;19.078;2023-10-19T07:04:40;49.53;;;36.10;;
62123;SDS011;48110;47.532;19.078;2023-10-19T07:07:43;51.83;;;37.83;;
62123;SDS011;48110;47.532;19.078;2023-10-19T07:10:47;49.75;;;36.70;;
62123;SDS011;48110;47.532;19.078;2023-10-19T07:13:52;50.60;;;36.45;;
62123;SDS011;48110;47.532;19.078;2023-10-19T07:16:56;48.55;;;35.75;;
62123;SDS011;48110;47.532;19.078;2023-10-19T07:19:58;49.25;;;36.60;;
62123;SDS011;48110;47.532;19.078;2023-10-19T07:23:03;50.28;;;38.45;;
62123;SDS011;48110;47.532;19.078;2023-10-19T07:26:23;55.83;;;40.65;;
62123;SDS011;48110;47.532;19.078;2023-10-19T07:32:38;44.75;;;32.15;;
62123;SDS011;48110;47.532;19.078;2023-10-19T07:35:41;37.65;;;30.10;;
62123;SDS011;48110;47.532;19.078;2023-10-19T07:38:46;40.65;;;31.20;;
62123;SDS011;48110;47.532;19.078;2023-10-19T07:41:50;38.17;;;30.02;;
62123;SDS011;48110;47.532;19.078;2023-10-19T07:44:53;38.70;;;31.08;;
62123;SDS011;48110;47.532;19.078;2023-10-19T07:47:56;34.30;;;28.42;;
62123;SDS011;48110;47.532;19.078;2023-10-19T07:51:00;32.63;;;26.87;;
62123;SDS011;48110;47.532;19.078;2023-10-19T07:54:03;31.77;;;27.20;;
62123;SDS011;48110;47.532;19.078;2023-10-19T07:57:07;31.73;;;26.62;;
62123;SDS011;48110;47.532;19.078;2023-10-19T08:00:11;36.88;;;27.40;;
62123;SDS011;48110;47.532;19.078;2023-10-19T08:03:20;32.67;;;27.10;;
62123;SDS011;48110;47.532;19.078;2023-10-19T08:06:24;34.55;;;28.33;;
62123;SDS011;48110;47.532;19.078;2023-10-19T08:09:27;32.65;;;25.98;;
62123;SDS011;48110;47.532;19.078;2023-10-19T08:12:34;36.28;;;27.77;;
62123;SDS011;48110;47.532;19.078;2023-10-19T08:15:36;35.03;;;27.73;;
62123;SDS011;48110;47.532;19.078;2023-10-19T08:18:39;39.63;;;26.77;;
62123;SDS011;48110;47.532;19.078;2023-10-19T08:21:42;36.28;;;28.12;;
62123;SDS011;48110;47.532;19.078;2023-10-19T08:24:45;37.47;;;26.75;;
62123;SDS011;48110;47.532;19.078;2023-10-19T08:27:48;33.28;;;26.23;;
62123;SDS011;48110;47.532;19.078;2023-10-19T08:34:05;30.58;;;24.52;;
62123;SDS011;48110;47.532;19.078;2023-10-19T08:37:08;28.87;;;24.58;;
62123;SDS011;48110;47.532;19.078;2023-10-19T08:40:11;29.55;;;23.48;;
62123;SDS011;48110;47.532;19.078;2023-10-19T08:43:18;30.90;;;23.17;;
62123;SDS011;48110;47.532;19.078;2023-10-19T08:46:22;25.58;;;22.42;;
62123;SDS011;48110;47.532;19.078;2023-10-19T08:49:27;28.87;;;22.45;;
62123;SDS011;48110;47.532;19.078;2023-10-19T08:52:31;28.15;;;23.73;;
62123;SDS011;48110;47.532;19.078;2023-10-19T08:55:38;27.50;;;23.10;;
62123;SDS011;48110;47.532;19.078;2023-10-19T08:58:50;30.30;;;23.25;;
62123;SDS011;48110;47.532;19.078;2023-10-19T09:02:02;28.80;;;23.27;;
62123;SDS011;48110;47.532;19.078;2023-10-19T09:05:06;28.77;;;23.50;;
62123;SDS011;48110;47.532;19.078;2023-10-19T09:08:11;35.30;;;24.75;;
62123;SDS011;48110;47.532;19.078;2023-10-19T09:11:17;26.25;;;21.60;;
62123;SDS011;48110;47.532;19.078;2023-10-19T09:14:57;28.20;;;22.05;;
62123;SDS011;48110;47.532;19.078;2023-10-19T09:17:52;23.90;;;20.80;;
62123;SDS011;48110;47.532;19.078;2023-10-19T09:20:57;26.92;;;22.25;;
62123;SDS011;48110;47.532;19.078;2023-10-19T09:24:10;23.25;;;20.75;;
62123;SDS011;48110;47.532;19.078;2023-10-19T09:27:13;22.90;;;20.45;;
62123;SDS011;48110;47.532;19.078;2023-10-19T09:30:20;24.87;;;21.20;;
62123;SDS011;48110;47.532;19.078;2023-10-19T09:33:25;24.35;;;20.98;;
62123;SDS011;48110;47.532;19.078;2023-10-19T09:36:29;24.15;;;20.27;;
62123;SDS011;48110;47.532;19.078;2023-10-19T09:39:33;23.42;;;19.80;;
62123;SDS011;48110;47.532;19.078;2023-10-19T09:42:43;23.27;;;18.75;;
62123;SDS011;48110;47.532;19.078;2023-10-19T09:45:51;23.75;;;18.60;;
62123;SDS011;48110;47.532;19.078;2023-10-19T09:48:57;23.58;;;19.08;;
62123;SDS011;48110;47.532;19.078;2023-10-19T09:52:00;23.10;;;19.33;;
62123;SDS011;48110;47.532;19.078;2023-10-19T09:55:19;27.17;;;19.02;;
62123;SDS011;48110;47.532;19.078;2023-10-19T09:58:35;23.53;;;19.67;;
62123;SDS011;48110;47.532;19.078;2023-10-19T10:08:45;22.87;;;19.62;;
62123;SDS011;48110;47.532;19.078;2023-10-19T10:11:49;23.50;;;19.55;;
62123;SDS011;48110;47.532;19.078;2023-10-19T10:15:01;23.92;;;19.87;;
62123;SDS011;48110;47.532;19.078;2023-10-19T10:18:16;28.12;;;20.67;;
62123;SDS011;48110;47.532;19.078;2023-10-19T10:21:21;23.85;;;20.52;;
62123;SDS011;48110;47.532;19.078;2023-10-19T10:24:27;23.92;;;19.77;;
62123;SDS011;48110;47.532;19.078;2023-10-19T10:27:30;28.67;;;20.92;;
62123;SDS011;48110;47.532;19.078;2023-10-19T10:30:33;23.83;;;20.70;;
62123;SDS011;48110;47.532;19.078;2023-10-19T10:33:40;25.45;;;21.05;;
62123;SDS011;48110;47.532;19.078;2023-10-19T10:37:34;23.58;;;20.88;;
62123;SDS011;48110;47.532;19.078;2023-10-19T10:40:17;24.00;;;20.55;;
62123;SDS011;48110;47.532;19.078;2023-10-19T10:43:20;26.67;;;21.27;;
62123;SDS011;48110;47.532;19.078;2023-10-19T10:46:25;26.30;;;22.35;;
62123;SDS011;48110;47.532;19.078;2023-10-19T10:49:31;28.05;;;22.52;;
62123;SDS011;48110;47.532;19.078;2023-10-19T10:52:35;29.35;;;24.23;;
62123;SDS011;48110;47.532;19.078;2023-10-19T10:55:39;30.15;;;24.77;;
62123;SDS011;48110;47.532;19.078;2023-10-19T10:58:42;29.95;;;24.85;;
62123;SDS011;48110;47.532;19.078;2023-10-19T11:01:46;31.33;;;25.35;;
62123;SDS011;48110;47.532;19.078;2023-10-19T11:04:48;27.73;;;24.73;;
62123;SDS011;48110;47.532;19.078;2023-10-19T11:08:03;32.47;;;26.87;;
62123;SDS011;48110;47.532;19.078;2023-10-19T11:11:09;30.50;;;24.98;;
62123;SDS011;48110;47.532;19.078;2023-10-19T11:14:15;34.40;;;26.98;;
62123;SDS011;48110;47.532;19.078;2023-10-19T11:17:18;32.63;;;25.60;;
62123;SDS011;48110;47.532;19.078;2023-10-19T11:20:22;28.35;;;22.83;;
62123;SDS011;48110;47.532;19.078;2023-10-19T11:26:46;46.00;;;40.85;;
62123;SDS011;48110;47.532;19.078;2023-10-19T11:29:59;33.67;;;24.10;;
62123;SDS011;48110;47.532;19.078;2023-10-19T11:33:07;29.77;;;24.42;;
62123;SDS011;48110;47.532;19.078;2023-10-19T11:36:12;26.87;;;23.05;;
62123;SDS011;48110;47.532;19.078;2023-10-19T11:39:15;27.23;;;22.70;;
62123;SDS011;48110;47.532;19.078;2023-10-19T11:42:18;29.98;;;22.60;;
62123;SDS011;48110;47.532;19.078;2023-10-19T11:45:21;26.00;;;21.83;;
62123;SDS011;48110;47.532;19.078;2023-10-19T11:48:24;25.45;;;21.98;;
62123;SDS011;48110;47.532;19.078;2023-10-19T11:51:26;28.67;;;22.90;;
62123;SDS011;48110;47.532;19.078;2023-10-19T11:54:29;29.58;;;23.30;;
62123;SDS011;48110;47.532;19.078;2023-10-19T11:57:34;27.80;;;23.35;;
62123;SDS011;48110;47.532;19.078;2023-10-19T12:00:38;30.02;;;23.75;;
62123;SDS011;48110;47.532;19.078;2023-10-19T12:03:41;29.90;;;22.65;;
62123;SDS011;48110;47.532;19.078;2023-10-19T12:06:48;27.10;;;22.87;;
62123;SDS011;48110;47.532;19.078;2023-10-19T12:09:52;29.65;;;22.92;;
62123;SDS011;48110;47.532;19.078;2023-10-19T12:12:54;31.98;;;23.65;;
62123;SDS011;48110;47.532;19.078;2023-10-19T12:16:03;29.08;;;23.25;;
62123;SDS011;48110;47.532;19.078;2023-10-19T12:19:07;32.80;;;23.80;;
62123;SDS011;48110;47.532;19.078;2023-10-19T12:22:10;30.12;;;23.10;;
62123;SDS011;48110;47.532;19.078;2023-10-19T12:25:13;26.17;;;23.12;;
62123;SDS011;48110;47.532;19.078;2023-10-19T12:28:17;29.37;;;23.95;;
62123;SDS011;48110;47.532;19.078;2023-10-19T12:31:20;30.85;;;25.08;;
62123;SDS011;48110;47.532;19.078;2023-10-19T12:34:25;31.25;;;25.75;;
62123;SDS011;48110;47.532;19.078;2023-10-19T12:37:32;32.55;;;27.00;;
62123;SDS011;48110;47.532;19.078;2023-10-19T12:40:35;32.40;;;27.00;;
62123;SDS011;48110;47.532;19.078;2023-10-19T12:43:38;33.63;;;26.75;;
62123;SDS011;48110;47.532;19.078;2023-10-19T12:46:42;33.97;;;27.58;;
62123;SDS011;48110;47.532;19.078;2023-10-19T12:49:45;37.50;;;27.85;;
62123;SDS011;48110;47.532;19.078;2023-10-19T12:52:49;35.05;;;27.90;;
62123;SDS011;48110;47.532;19.078;2023-10-19T12:55:52;35.08;;;27.52;;
62123;SDS011;48110;47.532;19.078;2023-10-19T12:58:55;37.05;;;28.87;;
62123;SDS011;48110;47.532;19.078;2023-10-19T13:01:58;36.63;;;27.95;;
62123;SDS011;48110;47.532;19.078;2023-10-19T13:05:02;36.97;;;29.05;;
62123;SDS011;48110;47.532;19.078;2023-10-19T13:08:05;38.90;;;29.25;;
62123;SDS011;48110;47.532;19.078;2023-10-19T13:11:16;36.60;;;28.52;;
62123;SDS011;48110;47.532;19.078;2023-10-19T13:14:20;35.65;;;28.10;;
62123;SDS011;48110;47.532;19.078;2023-10-19T13:17:23;37.85;;;29.40;;
62123;SDS011;48110;47.532;19.078;2023-10-19T13:20:27;36.63;;;28.27;;
62123;SDS011;48110;47.532;19.078;2023-10-19T13:23:36;35.13;;;28.13;;
62123;SDS011;48110;47.532;19.078;2023-10-19T13:26:39;38.63;;;28.70;;
62123;SDS011;48110;47.532;19.078;2023-10-19T13:29:44;37.50;;;28.70;;
62123;SDS011;48110;47.532;19.078;2023-10-19T13:32:49;34.50;;;28.67;;
62123;SDS011;48110;47.532;19.078;2023-10-19T13:35:52;34.03;;;28.25;;
62123;SDS011;48110;47.532;19.078;2023-10-19T13:38:55;34.17;;;28.02;;
62123;SDS011;48110;47.532;19.078;2023-10-19T13:41:58;35.88;;;28.87;;
62123;SDS011;48110;47.532;19.078;2023-10-19T13:45:01;37.80;;;29.10;;
62123;SDS011;48110;47.532;19.078;2023-10-19T13:48:04;34.20;;;27.90;;
62123;SDS011;48110;47.532;19.078;2023-10-19T13:51:07;36.13;;;28.92;;
62123;SDS011;48110;47.532;19.078;2023-10-19T13:54:17;36.42;;;28.33;;
62123;SDS011;48110;47.532;19.078;2023-10-19T13:57:20;37.58;;;30.00;;
62123;SDS011;48110;47.532;19.078;2023-10-19T14:00:30;36.73;;;30.63;;
62123;SDS011;48110;47.532;19.078;2023-10-19T14:03:33;39.60;;;31.35;;
62123;SDS011;48110;47.532;19.078;2023-10-19T14:06:37;38.55;;;31.25;;
62123;SDS011;48110;47.532;19.078;2023-10-19T14:09:40;37.58;;;30.92;;
62123;SDS011;48110;47.532;19.078;2023-10-19T14:12:43;40.65;;;31.00;;
62123;SDS011;48110;47.532;19.078;2023-10-19T14:15:46;40.42;;;32.10;;
62123;SDS011;48110;47.532;19.078;2023-10-19T14:18:49;36.50;;;30.58;;
62123;SDS011;48110;47.532;19.078;2023-10-19T14:21:52;38.45;;;31.30;;
62123;SDS011;48110;47.532;19.078;2023-10-19T14:24:55;39.05;;;32.53;;
62123;SDS011;48110;47.532;19.078;2023-10-19T14:27:58;40.20;;;32.15;;
62123;SDS011;48110;47.532;19.078;2023-10-19T14:31:03;39.42;;;32.33;;
62123;SDS011;48110;47.532;19.078;2023-10-19T14:34:07;39.97;;;31.73;;
62123;SDS011;48110;47.532;19.078;2023-10-19T14:37:13;38.55;;;32.67;;
62123;SDS011;48110;47.532;19.078;2023-10-19T14:40:17;42.38;;;32.38;;
62123;SDS011;48110;47.532;19.078;2023-10-19T14:43:23;41.00;;;32.72;;
62123;SDS011;48110;47.532;19.078;2023-10-19T14:46:28;37.83;;;32.45;;
62123;SDS011;48110;47.532;19.078;2023-10-19T14:49:32;41.53;;;33.25;;
62123;SDS011;48110;47.532;19.078;2023-10-19T14:52:35;44.42;;;34.53;;
62123;SDS011;48110;47.532;19.078;2023-10-19T14:55:38;42.53;;;35.25;;
62123;SDS011;48110;47.532;19.078;2023-10-19T14:58:41;50.90;;;36.78;;
62123;SDS011;48110;47.532;19.078;2023-10-19T15:01:44;46.75;;;36.80;;
62123;SDS011;48110;47.532;19.078;2023-10-19T15:04:48;53.38;;;37.75;;
62123;SDS011;48110;47.532;19.078;2023-10-19T15:07:51;47.00;;;37.70;;
62123;SDS011;48110;47.532;19.078;2023-10-19T15:10:55;53.03;;;39.03;;
62123;SDS011;48110;47.532;19.078;2023-10-19T15:13:59;51.08;;;38.00;;
62123;SDS011;48110;47.532;19.078;2023-10-19T15:17:05;54.65;;;39.40;;
62123;SDS011;48110;47.532;19.078;2023-10-19T15:20:09;55.28;;;40.83;;
62123;SDS011;48110;47.532;19.078;2023-10-19T15:23:13;56.20;;;40.70;;
62123;SDS011;48110;47.532;19.078;2023-10-19T15:26:16;56.33;;;41.67;;
62123;SDS011;48110;47.532;19.078;2023-10-19T15:29:19;53.30;;;41.60;;
62123;SDS011;48110;47.532;19.078;2023-10-19T15:32:22;62.92;;;44.20;;
62123;SDS011;48110;47.532;19.078;2023-10-19T15:35:27;60.90;;;43.72;;
62123;SDS011;48110;47.532;19.078;2023-10-19T15:38:48;59.95;;;43.65;;
62123;SDS011;48110;47.532;19.078;2023-10-19T15:41:53;63.22;;;44.22;;
62123;SDS011;48110;47.532;19.078;2023-10-19T15:44:56;67.25;;;44.55;;
62123;SDS011;48110;47.532;19.078;2023-10-19T15:47:59;72.55;;;46.17;;
62123;SDS011;48110;47.532;19.078;2023-10-19T15:51:04;72.70;;;46.65;;
62123;SDS011;48110;47.532;19.078;2023-10-19T15:54:07;71.53;;;46.75;;
62123;SDS011;48110;47.532;19.078;2023-10-19T15:57:10;68.68;;;45.22;;
62123;SDS011;48110;47.532;19.078;2023-10-19T16:00:14;71.80;;;46.00;;
62123;SDS011;48110;47.532;19.078;2023-10-19T16:03:18;71.85;;;47.28;;
62123;SDS011;48110;47.532;19.078;2023-10-19T16:06:21;74.75;;;47.08;;
62123;SDS011;48110;47.532;19.078;2023-10-19T16:09:24;82.60;;;49.30;;
62123;SDS011;48110;47.532;19.078;2023-10-19T16:12:28;75.80;;;48.47;;
62123;SDS011;48110;47.532;19.078;2023-10-19T16:15:33;72.78;;;46.78;;
62123;SDS011;48110;47.532;19.078;2023-10-19T16:18:36;73.75;;;46.78;;
62123;SDS011;48110;47.532;19.078;2023-10-19T16:21:39;71.50;;;46.40;;
62123;SDS011;48110;47.532;19.078;2023-10-19T16:24:43;75.75;;;45.67;;
62123;SDS011;48110;47.532;19.078;2023-10-19T16:27:46;76.93;;;47.00;;
62123;SDS011;48110;47.532;19.078;2023-10-19T16:30:49;72.10;;;46.78;;
62123;SDS011;48110;47.532;19.078;2023-10-19T16:33:53;75.07;;;46.15;;
62123;SDS011;48110;47.532;19.078;2023-10-19T16:36:56;79.50;;;48.87;;
62123;SDS011;48110;47.532;19.078;2023-10-19T16:39:59;84.65;;;53.10;;
62123;SDS011;48110;47.532;19.078;2023-10-19T16:43:03;82.60;;;50.47;;
62123;SDS011;48110;47.532;19.078;2023-10-19T16:46:06;85.15;;;51.55;;
62123;SDS011;48110;47.532;19.078;2023-10-19T16:49:09;84.05;;;51.30;;
62123;SDS011;48110;47.532;19.078;2023-10-19T16:52:12;84.15;;;50.47;;
62123;SDS011;48110;47.532;19.078;2023-10-19T16:55:15;87.88;;;51.60;;
62123;SDS011;48110;47.532;19.078;2023-10-19T16:58:18;85.00;;;51.90;;
62123;SDS011;48110;47.532;19.078;2023-10-19T17:01:21;82.05;;;50.85;;
62123;SDS011;48110;47.532;19.078;2023-10-19T17:04:24;79.93;;;49.88;;
62123;SDS011;48110;47.532;19.078;2023-10-19T17:07:28;78.05;;;49.63;;
62123;SDS011;48110;47.532;19.078;2023-10-19T17:10:31;79.80;;;50.92;;
62123;SDS011;48110;47.532;19.078;2023-10-19T17:13:34;81.87;;;51.72;;
62123;SDS011;48110;47.532;19.078;2023-10-19T17:16:39;77.30;;;50.78;;
62123;SDS011;48110;47.532;19.078;2023-10-19T17:19:44;83.28;;;49.70;;
62123;SDS011;48110;47.532;19.078;2023-10-19T17:22:48;75.97;;;49.67;;
62123;SDS011;48110;47.532;19.078;2023-10-19T17:25:51;79.65;;;49.70;;
62123;SDS011;48110;47.532;19.078;2023-10-19T17:28:54;79.87;;;48.55;;
62123;SDS011;48110;47.532;19.078;2023-10-19T17:31:58;73.30;;;47.58;;
62123;SDS011;48110;47.532;19.078;2023-10-19T17:35:02;70.60;;;45.80;;
62123;SDS011;48110;47.532;19.078;2023-10-19T17:38:08;71.18;;;47.92;;
62123;SDS011;48110;47.532;19.078;2023-10-19T17:41:11;73.05;;;46.60;;
62123;SDS011;48110;47.532;19.078;2023-10-19T17:44:14;74.30;;;47.75;;
62123;SDS011;48110;47.532;19.078;2023-10-19T17:47:18;69.90;;;44.92;;
62123;SDS011;48110;47.532;19.078;2023-10-19T17:50:21;65.20;;;44.45;;
62123;SDS011;48110;47.532;19.078;2023-10-19T17:53:26;63.90;;;44.08;;
62123;SDS011;48110;47.532;19.078;2023-10-19T17:56:28;61.05;;;44.67;;
62123;SDS011;48110;47.532;19.078;2023-10-19T17:59:31;64.80;;;44.55;;
62123;SDS011;48110;47.532;19.078;2023-10-19T18:02:34;64.47;;;43.83;;
62123;SDS011;48110;47.532;19.078;2023-10-19T18:05:43;69.90;;;46.15;;